Time;durP1;ratioP1;P1;durP2;ratioP2;P2;SDS_P1;SDS_P2;PMS_P1;PMS_P2;Temp;Humidity;BMP_temperature;BMP_pressure;BME280_temperature;BME280_humidity;BME280_pressure;Samples;Min_cycle;Max_cycle;Signal;HPM_P1;HPM_P2
2022/05/29 00:01:11;;;;;;;1.93;1.00;;;10.80;99.90;;;;;;5012920;28;20422;-72
2022/05/29 00:03:37;;;;;;;1.87;1.03;;;10.70;99.90;;;;;;5013184;28;20965;-73
2022/05/29 00:06:05;;;;;;;2.83;1.73;;;10.70;99.90;;;;;;5013466;28;20172;-72
2022/05/29 00:08:33;;;;;;;1.30;1.20;;;10.70;99.90;;;;;;5020578;28;20164;-71
2022/05/29 00:11:00;;;;;;;2.30;1.60;;;10.60;99.90;;;;;;5014810;28;20421;-71
2022/05/29 00:13:26;;;;;;;2.80;1.40;;;10.60;99.90;;;;;;5012836;28;20922;-72
2022/05/29 00:15:52;;;;;;;2.13;1.00;;;10.60;99.90;;;;;;5012367;28;20411;-72
2022/05/29 00:18:17;;;;;;;4.40;1.50;;;10.60;99.90;;;;;;5012574;28;20168;-73
2022/05/29 00:20:47;;;;;;;2.33;1.10;;;10.50;99.90;;;;;;5012312;28;20255;-72
2022/05/29 00:23:13;;;;;;;2.40;1.60;;;10.50;99.90;;;;;;5012111;28;20211;-72
2022/05/29 00:25:38;;;;;;;2.70;1.27;;;10.50;99.90;;;;;;5012144;28;20399;-73
2022/05/29 00:28:04;;;;;;;1.30;1.20;;;10.50;99.90;;;;;;5012426;28;20164;-72
2022/05/29 00:30:29;;;;;;;3.63;1.40;;;10.40;99.90;;;;;;5012360;28;20191;-73
2022/05/29 00:32:55;;;;;;;6.37;1.77;;;10.40;99.90;;;;;;5012155;28;20196;-71
2022/05/29 00:35:20;;;;;;;10.27;1.43;;;10.40;99.90;;;;;;5011978;28;20180;-72
2022/05/29 00:37:47;;;;;;;5.00;2.50;;;10.40;99.90;;;;;;5012093;28;20171;-71
2022/05/29 00:40:31;;;;;;;5.07;1.30;;;10.40;99.90;;;;;;5012335;28;20212;-72
2022/05/29 00:42:57;;;;;;;3.13;1.47;;;10.30;99.90;;;;;;5012252;28;20973;-72
2022/05/29 00:45:23;;;;;;;1.47;1.17;;;10.40;99.90;;;;;;5011689;28;20418;-71
2022/05/29 00:47:49;;;;;;;6.20;1.40;;;10.40;99.90;;;;;;5011205;28;20168;-72
2022/05/29 00:50:20;;;;;;;4.73;1.27;;;10.40;99.90;;;;;;5011272;28;20916;-71
2022/05/29 00:52:46;;;;;;;2.00;1.10;;;10.40;99.90;;;;;;5010072;28;20659;-71
2022/05/29 00:55:24;;;;;;;1.30;1.20;;;10.30;99.90;;;;;;5010996;28;20420;-72
2022/05/29 00:58:02;;;;;;;3.93;1.70;;;10.30;99.90;;;;;;5011725;28;20453;-72
2022/05/29 01:00:30;;;;;;;2.87;1.50;;;10.30;99.90;;;;;;5011356;28;20522;-72
2022/05/29 01:02:58;;;;;;;2.80;1.43;;;10.30;99.90;;;;;;5011076;28;20463;-72
2022/05/29 01:05:27;;;;;;;6.70;1.40;;;10.30;99.90;;;;;;5011342;28;20502;-73
2022/05/29 01:07:59;;;;;;;2.57;1.30;;;10.30;99.90;;;;;;5012042;28;20403;-72
2022/05/29 01:10:54;;;;;;;3.20;1.30;;;10.30;99.90;;;;;;5012132;28;20407;-73
2022/05/29 01:14:00;;;;;;;2.03;1.73;;;10.30;99.90;;;;;;4981857;28;20467;-71
2022/05/29 01:16:43;;;;;;;0.90;0.83;;;10.30;99.90;;;;;;5011243;28;20411;-71
2022/05/29 01:19:23;;;;;;;1.10;1.03;;;10.30;99.90;;;;;;5011183;28;20486;-72
2022/05/29 01:22:41;;;;;;;1.27;1.13;;;10.30;99.90;;;;;;5011181;28;20415;-71
2022/05/29 01:25:32;;;;;;;3.73;1.27;;;10.30;99.90;;;;;;5010726;28;20904;-73
2022/05/29 01:28:11;;;;;;;5.77;1.67;;;10.30;99.90;;;;;;5010750;28;20418;-72
2022/05/29 01:30:50;;;;;;;4.63;1.10;;;10.20;99.90;;;;;;5010762;28;20415;-71
2022/05/29 01:33:29;;;;;;;5.00;1.37;;;10.20;99.90;;;;;;5010787;28;20427;-74
2022/05/29 01:36:00;;;;;;;2.30;1.47;;;10.20;99.90;;;;;;5010425;28;20498;-73
2022/05/29 01:38:32;;;;;;;3.70;2.23;;;10.20;99.90;;;;;;5010923;28;20478;-73
2022/05/29 01:41:07;;;;;;;1.40;1.30;;;10.20;99.90;;;;;;5010650;28;20419;-73
2022/05/29 01:43:44;;;;;;;4.00;2.37;;;10.20;99.90;;;;;;5004549;23;983648;-68
2022/05/29 01:46:31;;;;;;;3.20;1.30;;;10.20;99.90;;;;;;5031510;28;20171;-68
2022/05/29 01:49:02;;;;;;;1.60;1.03;;;10.20;99.90;;;;;;5031937;28;20407;-68
2022/05/29 01:52:00;;;;;;;2.27;1.20;;;10.10;99.90;;;;;;5031692;28;20873;-68
2022/05/29 01:54:39;;;;;;;1.10;1.00;;;10.20;99.90;;;;;;5029444;28;20412;-68
2022/05/29 01:57:21;;;;;;;1.20;1.10;;;10.20;99.90;;;;;;5031779;28;20920;-68
2022/05/29 01:59:57;;;;;;;3.43;1.40;;;10.20;99.90;;;;;;5032447;28;20448;-68
2022/05/29 02:02:29;;;;;;;2.20;2.00;;;10.20;99.90;;;;;;5031902;28;20887;-69
2022/05/29 02:04:58;;;;;;;2.40;1.47;;;10.20;99.90;;;;;;5033214;28;20927;-69
2022/05/29 02:10:26;;;;;;;1.57;1.47;;;10.20;99.90;;;;;;5040657;28;20920;-69
2022/05/29 02:13:14;;;;;;;1.20;1.10;;;10.20;99.90;;;;;;5036031;28;20398;-68
2022/05/29 02:15:54;;;;;;;1.27;1.10;;;10.20;99.90;;;;;;5035708;28;20882;-67
2022/05/29 02:18:27;;;;;;;2.50;1.00;;;10.20;99.90;;;;;;5036063;28;20398;-67
2022/05/29 02:20:57;;;;;;;1.50;1.30;;;10.20;99.90;;;;;;5036527;28;20433;-68
2022/05/29 02:23:35;;;;;;;1.83;1.33;;;10.20;99.90;;;;;;5036244;28;20458;-67
2022/05/29 02:26:03;;;;;;;1.50;1.40;;;10.20;99.90;;;;;;5036632;28;20410;-68
2022/05/29 02:28:35;;;;;;;3.17;1.53;;;10.20;99.90;;;;;;5036383;28;20444;-68
2022/05/29 02:31:22;;;;;;;1.17;1.07;;;10.20;99.90;;;;;;5036471;28;20456;-68
2022/05/29 02:33:55;;;;;;;8.67;1.43;;;10.30;99.90;;;;;;5036699;28;20794;-68
2022/05/29 02:36:36;;;;;;;2.67;1.73;;;10.30;99.90;;;;;;5036410;28;20472;-68
2022/05/29 02:39:17;;;;;;;2.30;1.13;;;10.30;99.90;;;;;;5036418;28;20429;-68
2022/05/29 02:41:54;;;;;;;1.73;1.30;;;10.30;99.90;;;;;;5035492;28;20490;-68
2022/05/29 02:44:29;;;;;;;3.73;1.20;;;10.30;99.90;;;;;;5035912;28;20461;-67
2022/05/29 02:47:11;;;;;;;4.77;1.67;;;10.40;99.90;;;;;;5037144;28;20885;-68
2022/05/29 02:49:47;;;;;;;2.50;1.70;;;10.40;99.90;;;;;;5035781;28;20406;-68
2022/05/29 02:52:16;;;;;;;4.00;1.13;;;10.40;99.90;;;;;;5035061;28;20900;-68
2022/05/29 02:54:42;;;;;;;2.83;1.50;;;10.30;99.90;;;;;;5034702;28;20797;-68
2022/05/29 02:57:08;;;;;;;2.30;1.03;;;10.30;99.90;;;;;;5034875;28;20449;-68
2022/05/29 02:59:46;;;;;;;3.13;2.00;;;10.40;99.90;;;;;;5034165;28;20417;-68
2022/05/29 03:02:34;;;;;;;3.90;1.80;;;10.40;99.90;;;;;;5034010;28;20599;-68
2022/05/29 03:05:23;;;;;;;1.30;1.20;;;10.40;99.90;;;;;;5033981;28;20469;-68
2022/05/29 03:08:21;;;;;;;4.07;1.17;;;10.30;99.90;;;;;;5034670;28;20408;-68
2022/05/29 03:11:09;;;;;;;2.00;1.17;;;10.40;99.90;;;;;;5034217;28;20890;-68
2022/05/29 03:14:03;;;;;;;3.03;1.60;;;10.40;99.90;;;;;;5034639;28;20780;-69
2022/05/29 03:16:50;;;;;;;3.50;1.47;;;10.40;99.90;;;;;;5033439;28;20414;-68
2022/05/29 03:19:26;;;;;;;1.93;1.43;;;10.40;99.90;;;;;;5034424;28;20398;-68
2022/05/29 03:22:12;;;;;;;1.80;1.00;;;10.40;99.90;;;;;;5034589;28;20829;-69
2022/05/29 03:25:06;;;;;;;1.50;1.10;;;10.40;99.90;;;;;;5035861;28;20414;-68
2022/05/29 03:27:41;;;;;;;2.43;1.10;;;10.30;99.90;;;;;;5035647;28;20391;-68
2022/05/29 03:30:13;;;;;;;1.27;1.17;;;10.20;99.90;;;;;;5033890;28;20469;-67
2022/05/29 03:32:39;;;;;;;1.00;0.90;;;10.30;99.90;;;;;;5033878;28;20394;-67
2022/05/29 03:35:33;;;;;;;1.73;1.20;;;10.30;99.90;;;;;;5033977;28;20425;-67
2022/05/29 03:38:01;;;;;;;2.77;1.80;;;10.30;99.90;;;;;;5033732;28;20889;-69
2022/05/29 03:40:28;;;;;;;4.47;1.47;;;10.40;99.90;;;;;;5033812;28;20445;-69
2022/05/29 03:42:55;;;;;;;2.00;1.40;;;10.50;99.90;;;;;;5033429;28;20509;-67
2022/05/29 03:45:23;;;;;;;2.20;2.03;;;10.50;99.90;;;;;;5033344;28;20415;-67
2022/05/29 03:47:49;;;;;;;3.67;1.63;;;10.40;99.90;;;;;;5033078;28;20789;-67
2022/05/29 03:50:17;;;;;;;3.97;1.37;;;10.50;99.90;;;;;;5033546;28;20528;-67
2022/05/29 03:52:44;;;;;;;1.60;1.50;;;10.60;99.90;;;;;;5033556;28;20174;-67
2022/05/29 03:55:10;;;;;;;4.30;1.60;;;10.60;99.90;;;;;;5033896;28;20444;-67
2022/05/29 03:57:36;;;;;;;1.80;1.30;;;10.60;99.90;;;;;;5034485;28;20908;-68
2022/05/29 04:00:07;;;;;;;1.63;1.03;;;10.60;99.90;;;;;;5033194;28;20414;-67
2022/05/29 04:02:33;;;;;;;3.53;1.90;;;10.70;99.90;;;;;;5033085;28;20332;-67
2022/05/29 04:04:59;;;;;;;1.50;1.30;;;10.80;99.90;;;;;;5033709;28;20430;-67
2022/05/29 04:12:03;;;;;;;2.83;1.50;;;10.70;99.90;;;;;;5034384;28;20263;-67
2022/05/29 04:12:54;;;;;;;2.50;1.30;;;10.70;99.90;;;;;;5033237;28;20421;-67
2022/05/29 04:15:20;;;;;;;1.70;1.60;;;10.60;99.90;;;;;;5032976;28;20410;-68
2022/05/29 04:17:45;;;;;;;1.07;1.03;;;10.70;99.90;;;;;;5032675;28;20170;-68
2022/05/29 04:20:11;;;;;;;3.07;1.40;;;10.60;99.90;;;;;;5032798;28;20527;-68
2022/05/29 04:22:36;;;;;;;3.10;1.33;;;10.80;99.90;;;;;;5032754;28;20279;-68
2022/05/29 04:25:02;;;;;;;4.60;1.47;;;10.70;99.90;;;;;;5032685;28;20184;-69
2022/05/29 04:27:28;;;;;;;2.90;1.33;;;10.70;99.90;;;;;;5032735;28;20590;-67
2022/05/29 04:29:53;;;;;;;1.97;1.80;;;10.80;99.90;;;;;;5032853;28;20406;-68
2022/05/29 04:35:03;;;;;;;6.00;1.70;;;10.90;99.90;;;;;;5032616;28;20281;-68
2022/05/29 04:37:29;;;;;;;2.20;1.67;;;11.00;99.90;;;;;;5032296;28;20414;-68
2022/05/29 04:39:55;;;;;;;1.80;1.50;;;11.00;99.90;;;;;;5032204;28;20237;-67
2022/05/29 04:42:20;;;;;;;5.73;1.90;;;11.00;99.90;;;;;;5032527;28;20195;-68
2022/05/29 04:44:46;;;;;;;3.47;1.90;;;10.90;99.90;;;;;;5032002;28;20230;-68
2022/05/29 04:47:11;;;;;;;1.77;1.23;;;10.90;99.90;;;;;;5032441;28;20164;-68
2022/05/29 04:49:38;;;;;;;3.80;1.47;;;10.80;99.90;;;;;;5032559;28;20167;-68
2022/05/29 04:52:08;;;;;;;2.20;2.00;;;11.00;99.90;;;;;;5032859;28;20167;-68
2022/05/29 04:54:35;;;;;;;1.73;1.40;;;11.10;99.90;;;;;;5031803;28;20924;-69
2022/05/29 04:57:00;;;;;;;1.77;1.37;;;11.10;99.90;;;;;;5032009;28;20429;-69
2022/05/29 04:59:26;;;;;;;1.53;1.30;;;11.10;99.90;;;;;;5031455;28;20394;-69
2022/05/29 05:01:52;;;;;;;2.53;1.70;;;11.10;99.90;;;;;;5031364;28;20249;-68
2022/05/29 05:04:17;;;;;;;1.40;1.17;;;11.20;99.90;;;;;;5029926;28;20195;-68
2022/05/29 05:06:43;;;;;;;1.10;1.00;;;11.30;99.90;;;;;;5031530;28;20409;-69
2022/05/29 05:09:08;;;;;;;1.80;1.27;;;11.40;99.90;;;;;;5031558;28;20229;-69
2022/05/29 05:11:34;;;;;;;2.90;1.10;;;11.30;99.90;;;;;;5031010;28;20642;-68
2022/05/29 05:13:59;;;;;;;1.43;1.27;;;11.30;99.90;;;;;;5031246;28;20651;-68
2022/05/29 05:16:25;;;;;;;1.63;1.53;;;11.40;99.90;;;;;;5030913;28;20181;-69
2022/05/29 05:18:50;;;;;;;3.20;1.67;;;11.50;99.90;;;;;;5031066;28;20191;-69
2022/05/29 05:21:16;;;;;;;2.83;1.63;;;11.60;99.90;;;;;;5031179;28;20182;-68
2022/05/29 05:23:41;;;;;;;1.17;0.93;;;11.60;99.90;;;;;;5030956;28;20210;-68
2022/05/29 05:26:09;;;;;;;2.80;1.20;;;11.50;99.90;;;;;;5030678;28;20681;-68
2022/05/29 05:28:35;;;;;;;4.40;2.00;;;11.40;99.90;;;;;;5031350;28;20262;-68
2022/05/29 05:31:01;;;;;;;3.40;1.97;;;11.50;99.90;;;;;;5031362;28;20945;-69
2022/05/29 05:33:26;;;;;;;2.03;1.57;;;11.40;99.90;;;;;;5031199;28;20215;-69
2022/05/29 05:35:52;;;;;;;3.70;1.60;;;11.50;99.90;;;;;;5031256;28;20630;-68
2022/05/29 05:38:17;;;;;;;3.97;2.07;;;11.70;99.90;;;;;;5031861;28;20431;-68
2022/05/29 05:40:43;;;;;;;2.10;1.87;;;11.70;99.90;;;;;;5034574;28;20174;-68
2022/05/29 05:43:09;;;;;;;2.60;1.67;;;11.50;99.90;;;;;;5036014;28;20215;-68
2022/05/29 05:45:34;;;;;;;2.60;1.77;;;11.50;99.90;;;;;;5039681;28;20653;-68
2022/05/29 05:48:00;;;;;;;1.33;1.23;;;11.60;99.90;;;;;;5035289;28;20175;-68
2022/05/29 05:50:25;;;;;;;1.60;1.50;;;11.50;99.90;;;;;;5034865;28;20172;-68
2022/05/29 05:52:51;;;;;;;2.97;1.93;;;11.40;99.90;;;;;;5034691;28;20179;-68
2022/05/29 05:55:16;;;;;;;2.50;2.07;;;11.50;99.90;;;;;;5034310;28;20183;-68
2022/05/29 05:57:42;;;;;;;5.80;1.50;;;11.50;99.90;;;;;;5034646;28;20180;-68
2022/05/29 06:00:14;;;;;;;2.40;1.93;;;11.50;99.90;;;;;;5034697;28;20225;-68
2022/05/29 06:02:41;;;;;;;4.30;1.80;;;11.60;99.90;;;;;;5034239;28;20235;-68
2022/05/29 06:05:07;;;;;;;1.90;1.30;;;11.60;99.90;;;;;;5034486;28;20979;-69
2022/05/29 06:07:32;;;;;;;5.60;1.80;;;11.60;99.90;;;;;;5034841;28;20502;-68
2022/05/29 06:09:58;;;;;;;2.80;1.77;;;11.60;99.90;;;;;;5034454;28;20513;-69
2022/05/29 06:12:23;;;;;;;6.40;1.97;;;11.60;99.90;;;;;;5034144;28;20176;-69
2022/05/29 06:14:49;;;;;;;4.40;2.13;;;11.90;99.90;;;;;;5034179;28;20210;-68
2022/05/29 06:17:14;;;;;;;2.10;1.90;;;11.90;99.90;;;;;;5034521;28;20164;-69
2022/05/29 06:19:40;;;;;;;1.33;1.10;;;12.00;99.90;;;;;;5034302;28;20203;-69
2022/05/29 06:22:07;;;;;;;4.73;1.83;;;11.80;99.90;;;;;;5034020;28;20638;-68
2022/05/29 06:24:33;;;;;;;2.17;1.40;;;11.90;99.90;;;;;;5033808;28;20482;-68
2022/05/29 06:26:59;;;;;;;2.00;1.73;;;11.90;99.90;;;;;;5034024;28;20417;-69
2022/05/29 06:29:25;;;;;;;2.23;1.80;;;11.90;99.90;;;;;;5034051;28;20482;-68
2022/05/29 06:31:53;;;;;;;3.53;2.27;;;11.80;99.90;;;;;;5033919;28;20187;-69
2022/05/29 06:34:19;;;;;;;1.40;1.30;;;12.00;99.90;;;;;;5033994;28;20461;-69
2022/05/29 06:36:45;;;;;;;4.30;1.30;;;12.20;99.90;;;;;;5033967;28;20785;-69
2022/05/29 06:39:10;;;;;;;2.30;1.90;;;12.20;99.90;;;;;;5033896;28;20402;-69
2022/05/29 06:41:39;;;;;;;2.70;1.70;;;12.00;99.90;;;;;;5033588;28;20679;-69
2022/05/29 06:44:05;;;;;;;2.60;1.63;;;12.00;99.90;;;;;;5033568;28;20215;-69
2022/05/29 06:46:30;;;;;;;1.97;1.77;;;12.20;99.90;;;;;;5033474;28;20434;-69
2022/05/29 06:48:56;;;;;;;1.73;1.40;;;12.30;99.90;;;;;;5032416;28;20411;-69
2022/05/29 06:51:23;;;;;;;5.33;2.20;;;12.30;99.90;;;;;;5032455;28;20179;-69
2022/05/29 06:53:49;;;;;;;1.77;1.57;;;12.50;99.90;;;;;;5032684;28;20215;-69
2022/05/29 06:56:16;;;;;;;1.40;1.30;;;12.50;99.90;;;;;;5033433;28;20417;-69
2022/05/29 06:58:42;;;;;;;2.20;2.10;;;12.50;99.90;;;;;;5033373;28;20409;-69
2022/05/29 07:09:22;;;;;;;3.10;2.30;;;13.10;99.90;;;;;;5033157;28;20437;-69
2022/05/29 07:11:53;;;;;;;2.10;1.33;;;13.10;99.90;;;;;;5032970;28;20418;-69
2022/05/29 07:14:19;;;;;;;2.87;1.90;;;13.00;99.90;;;;;;5032836;28;20219;-69
2022/05/29 07:16:44;;;;;;;1.43;1.20;;;13.10;99.90;;;;;;5032945;28;20464;-69
2022/05/29 07:19:10;;;;;;;3.03;1.70;;;12.90;99.90;;;;;;5033049;28;20175;-69
2022/05/29 07:21:38;;;;;;;2.77;1.60;;;13.10;99.90;;;;;;5033220;28;20167;-69
2022/05/29 07:24:04;;;;;;;1.50;1.40;;;13.50;99.90;;;;;;5033765;28;20458;-70
2022/05/29 07:26:30;;;;;;;7.50;1.87;;;13.40;99.90;;;;;;5033346;28;20494;-68
2022/05/29 07:28:56;;;;;;;4.20;1.30;;;13.00;99.90;;;;;;5034500;28;20486;-67
2022/05/29 07:31:22;;;;;;;2.13;1.40;;;12.70;99.90;;;;;;5036043;28;20183;-68
2022/05/29 07:33:48;;;;;;;1.60;1.13;;;12.50;99.90;;;;;;5038408;28;20274;-68
2022/05/29 07:36:13;;;;;;;1.30;1.20;;;12.80;99.90;;;;;;5032685;28;20449;-68
2022/05/29 07:38:39;;;;;;;3.90;2.40;;;12.60;99.90;;;;;;5032489;28;20395;-68
2022/05/29 07:43:53;;;;;;;5.23;1.87;;;12.70;99.90;;;;;;5032433;28;20528;-68
2022/05/29 07:46:19;;;;;;;3.10;1.10;;;12.80;99.90;;;;;;5038220;23;20498;-67
2022/05/29 07:48:44;;;;;;;4.83;1.60;;;13.10;99.90;;;;;;5012482;28;20836;-67
2022/05/29 07:51:10;;;;;;;2.73;1.30;;;13.60;99.90;;;;;;5012548;28;20435;-67
2022/05/29 07:53:36;;;;;;;3.10;1.60;;;13.60;99.90;;;;;;5012433;28;20494;-66
2022/05/29 07:56:03;;;;;;;1.80;1.70;;;14.10;99.90;;;;;;5012174;28;20238;-67
2022/05/29 07:58:28;;;;;;;1.60;1.40;;;14.70;99.90;;;;;;5012143;28;20786;-67
2022/05/29 08:00:54;;;;;;;1.63;1.23;;;14.60;99.90;;;;;;5012286;28;20453;-66
2022/05/29 08:03:22;;;;;;;3.70;1.50;;;14.40;99.90;;;;;;5011822;28;20235;-66
2022/05/29 08:05:48;;;;;;;2.63;1.50;;;14.40;99.90;;;;;;5012184;28;20692;-68
2022/05/29 08:08:13;;;;;;;1.63;1.43;;;14.20;99.90;;;;;;5012413;28;20417;-67
2022/05/29 08:10:41;;;;;;;1.53;1.40;;;14.60;99.90;;;;;;5012142;28;20328;-67
2022/05/29 08:13:07;;;;;;;1.97;1.33;;;14.70;99.90;;;;;;5012319;28;20169;-67
2022/05/29 08:15:32;;;;;;;3.20;1.40;;;14.10;99.90;;;;;;5011940;28;20554;-67
2022/05/29 08:17:58;;;;;;;2.80;1.40;;;13.80;99.90;;;;;;5012146;28;20403;-67
2022/05/29 08:20:26;;;;;;;2.60;1.40;;;14.20;99.90;;;;;;5012413;28;20363;-67
2022/05/29 08:22:51;;;;;;;2.33;1.50;;;14.60;99.90;;;;;;5011980;28;20215;-67
2022/05/29 08:30:51;;;;;;;1.10;1.10;;;14.80;99.90;;;;;;5012064;28;20744;-67
2022/05/29 08:33:18;;;;;;;1.83;1.63;;;14.40;99.90;;;;;;5012130;28;20403;-67
2022/05/29 08:35:47;;;;;;;1.90;1.17;;;14.40;99.90;;;;;;5011527;28;20433;-67
2022/05/29 08:38:14;;;;;;;4.77;1.50;;;14.80;99.90;;;;;;5011714;28;20489;-67
2022/05/29 08:40:50;;;;;;;1.33;1.03;;;15.00;99.90;;;;;;5011452;28;20550;-67
2022/05/29 08:43:37;;;;;;;4.07;1.30;;;15.30;99.90;;;;;;5011708;28;20844;-67
2022/05/29 08:46:26;;;;;;;1.70;1.20;;;14.90;99.90;;;;;;5011430;28;20964;-67
2022/05/29 08:48:53;;;;;;;1.83;1.30;;;15.20;99.90;;;;;;5011486;28;20401;-67
2022/05/29 08:51:52;;;;;;;2.50;1.40;;;15.20;99.90;;;;;;5011718;28;20453;-67
2022/05/29 08:54:46;;;;;;;2.10;1.30;;;15.20;99.90;;;;;;5011491;28;20403;-67
2022/05/29 08:57:53;;;;;;;4.30;1.13;;;16.00;99.90;;;;;;5011952;28;20392;-67
2022/05/29 09:00:29;;;;;;;2.60;1.20;;;16.60;99.90;;;;;;5011833;28;20385;-68
2022/05/29 09:03:29;;;;;;;6.30;1.20;;;17.10;99.90;;;;;;5011534;28;20640;-68
2022/05/29 09:06:04;;;;;;;1.00;0.90;;;17.80;99.90;;;;;;5011381;28;20764;-68
2022/05/29 09:08:42;;;;;;;1.57;1.13;;;17.60;99.90;;;;;;5011622;28;20410;-68
2022/05/29 09:11:16;;;;;;;0.90;0.80;;;18.20;99.90;;;;;;5011925;28;20486;-67
2022/05/29 09:13:53;;;;;;;0.93;0.87;;;17.30;99.90;;;;;;5011725;28;20405;-68
2022/05/29 09:16:22;;;;;;;1.47;1.37;;;16.60;99.90;;;;;;5015345;28;20423;-68
2022/05/29 09:18:50;;;;;;;4.50;1.20;;;15.90;99.90;;;;;;5015305;28;20396;-67
2022/05/29 09:21:23;;;;;;;2.50;1.40;;;15.10;99.90;;;;;;5015807;28;20762;-67
2022/05/29 09:24:04;;;;;;;1.57;1.00;;;15.20;99.90;;;;;;5015818;28;20438;-67
2022/05/29 09:26:35;;;;;;;1.20;1.00;;;14.80;99.90;;;;;;5015646;28;21035;-68
2022/05/29 09:29:02;;;;;;;2.67;1.07;;;14.50;99.90;;;;;;5015445;28;20393;-67
2022/05/29 09:31:27;;;;;;;1.67;1.30;;;14.20;99.90;;;;;;5015411;28;20404;-67
2022/05/29 09:33:54;;;;;;;3.37;1.37;;;14.20;99.90;;;;;;5015291;28;20466;-67
2022/05/29 09:36:37;;;;;;;1.67;1.57;;;14.50;99.90;;;;;;5015262;28;20266;-67
2022/05/29 09:39:25;;;;;;;1.20;1.10;;;15.20;99.90;;;;;;5015327;28;20504;-67
2022/05/29 09:42:04;;;;;;;1.50;1.40;;;15.60;99.90;;;;;;5015325;28;20883;-67
2022/05/29 09:44:30;;;;;;;1.17;1.07;;;15.90;99.90;;;;;;5014914;28;20904;-68
2022/05/29 09:49:40;;;;;;;1.40;1.30;;;16.00;99.90;;;;;;5015152;28;20480;-67
2022/05/29 09:49:41;;;;;;;2.63;1.20;;;16.20;99.90;;;;;;5014985;28;20407;-67
2022/05/29 09:52:20;;;;;;;2.60;1.10;;;15.90;99.90;;;;;;5015066;28;20469;-67
2022/05/29 09:55:05;;;;;;;1.70;1.40;;;15.50;99.90;;;;;;5014981;28;20212;-67
2022/05/29 09:57:49;;;;;;;1.53;1.00;;;16.00;99.90;;;;;;5015299;28;20396;-67
2022/05/29 10:00:35;;;;;;;1.70;1.33;;;15.40;99.90;;;;;;5015053;28;20436;-67
2022/05/29 10:03:02;;;;;;;1.20;1.10;;;14.70;99.90;;;;;;5016179;28;20472;-67
2022/05/29 10:05:28;;;;;;;2.37;1.50;;;14.60;99.90;;;;;;5014477;28;20517;-67
2022/05/29 10:07:57;;;;;;;2.43;1.00;;;14.40;99.90;;;;;;5014830;28;20411;-67
2022/05/29 10:10:22;;;;;;;1.40;0.97;;;14.10;99.90;;;;;;5014610;28;20417;-67
2022/05/29 10:12:49;;;;;;;3.43;1.03;;;14.00;99.90;;;;;;5014458;28;20899;-67
2022/05/29 10:15:26;;;;;;;3.33;1.20;;;14.10;99.90;;;;;;5014490;28;20193;-67
2022/05/29 10:18:10;;;;;;;3.40;1.27;;;13.70;99.90;;;;;;5014393;28;20414;-67
2022/05/29 10:20:44;;;;;;;3.97;1.70;;;13.90;99.90;;;;;;5014539;28;20396;-67
2022/05/29 10:23:31;;;;;;;1.20;1.10;;;13.90;99.90;;;;;;5014458;28;20509;-68
2022/05/29 10:26:01;;;;;;;1.10;0.90;;;14.10;99.90;;;;;;5013837;28;20952;-67
2022/05/29 10:28:31;;;;;;;2.53;1.60;;;14.50;99.90;;;;;;5014690;28;20994;-67
2022/05/29 10:31:00;;;;;;;1.20;1.00;;;14.60;99.90;;;;;;5014191;28;20392;-67
2022/05/29 10:33:30;;;;;;;1.20;1.00;;;14.80;99.90;;;;;;5014398;28;20777;-68
2022/05/29 10:36:09;;;;;;;1.97;1.00;;;15.40;99.90;;;;;;5014100;28;20504;-67
2022/05/29 10:38:35;;;;;;;1.67;0.83;;;15.20;99.90;;;;;;5014177;28;20485;-67
2022/05/29 10:41:03;;;;;;;0.90;0.80;;;15.60;99.90;;;;;;5014187;28;20454;-67
2022/05/29 10:43:38;;;;;;;2.87;0.90;;;16.00;99.90;;;;;;5014042;28;20449;-66
2022/05/29 10:46:06;;;;;;;0.90;0.70;;;15.70;99.90;;;;;;5013822;28;20475;-67
2022/05/29 10:48:44;;;;;;;0.70;0.70;;;15.90;99.90;;;;;;5014191;28;20421;-67
2022/05/29 10:51:19;;;;;;;0.70;0.70;;;16.00;99.90;;;;;;5014099;28;20444;-67
2022/05/29 10:53:58;;;;;;;1.20;1.03;;;15.40;99.90;;;;;;5014025;28;20406;-66
2022/05/29 10:56:48;;;;;;;1.93;1.20;;;15.10;99.90;;;;;;5013995;28;20437;-67
2022/05/29 10:59:33;;;;;;;0.90;0.80;;;15.80;99.90;;;;;;5014088;28;20900;-66
2022/05/29 11:05:56;;;;;;;1.27;1.17;;;16.40;99.90;;;;;;5013598;28;20814;-66
2022/05/29 11:08:35;;;;;;;1.73;1.07;;;16.50;99.90;;;;;;5013589;28;20426;-67
2022/05/29 11:11:35;;;;;;;1.70;1.30;;;16.60;99.90;;;;;;5013504;28;20404;-67
2022/05/29 11:14:12;;;;;;;1.03;0.80;;;16.50;99.90;;;;;;5013817;28;20763;-67
2022/05/29 11:17:05;;;;;;;1.10;0.90;;;16.30;99.90;;;;;;5013445;28;20500;-66
2022/05/29 11:19:49;;;;;;;1.00;0.83;;;16.60;99.90;;;;;;5013706;28;20864;-66
2022/05/29 11:22:30;;;;;;;0.87;0.80;;;17.30;99.90;;;;;;5013483;28;20387;-67
2022/05/29 11:25:12;;;;;;;0.80;0.77;;;17.00;99.90;;;;;;5013220;28;20427;-66
2022/05/29 11:28:04;;;;;;;3.40;0.93;;;16.90;99.90;;;;;;5013593;28;20465;-66
2022/05/29 11:30:51;;;;;;;1.47;1.00;;;16.90;99.90;;;;;;5013237;28;20395;-66
2022/05/29 11:33:27;;;;;;;1.03;0.93;;;17.20;99.90;;;;;;5013179;28;20507;-67
2022/05/29 11:36:23;;;;;;;0.80;0.80;;;17.30;99.90;;;;;;5013197;28;20781;-66
2022/05/29 11:39:03;;;;;;;1.67;0.90;;;17.00;99.90;;;;;;5012564;28;20437;-66
2022/05/29 11:41:56;;;;;;;3.00;1.50;;;16.60;99.90;;;;;;5012941;28;20398;-67
2022/05/29 11:44:56;;;;;;;0.93;0.87;;;16.20;99.90;;;;;;5012839;28;20808;-67
2022/05/29 11:53:32;;;;;;;1.13;1.03;;;15.70;99.90;;;;;;5012808;28;20410;-68
2022/05/29 11:56:03;;;;;;;2.30;1.50;;;14.60;99.90;;;;;;5012945;28;20848;-69
2022/05/29 11:58:34;;;;;;;1.60;1.40;;;14.20;99.90;;;;;;5012848;28;20408;-67
2022/05/29 12:01:06;;;;;;;1.57;1.30;;;14.40;99.90;;;;;;5012977;28;20399;-66
2022/05/29 12:03:45;;;;;;;1.57;1.43;;;14.50;99.90;;;;;;5012961;28;20480;-67
2022/05/29 12:06:16;;;;;;;2.17;1.50;;;14.40;99.90;;;;;;5012528;28;20424;-66
2022/05/29 12:08:48;;;;;;;2.73;1.40;;;14.40;99.90;;;;;;5013117;28;20451;-66
2022/05/29 12:11:41;;;;;;;1.77;1.67;;;14.40;99.90;;;;;;5012577;28;20403;-66
2022/05/29 12:14:26;;;;;;;1.47;1.37;;;15.00;99.90;;;;;;5012843;28;20388;-67
2022/05/29 12:16:59;;;;;;;1.00;0.90;;;14.90;99.90;;;;;;5012441;28;20396;-66
2022/05/29 12:19:31;;;;;;;0.90;0.80;;;15.40;99.90;;;;;;5012422;28;20488;-66
2022/05/29 12:22:02;;;;;;;1.30;1.20;;;16.00;99.90;;;;;;5012221;28;20390;-66
2022/05/29 12:24:32;;;;;;;1.30;1.20;;;15.80;99.90;;;;;;5012201;28;20543;-67
2022/05/29 12:27:05;;;;;;;1.73;0.97;;;16.30;99.90;;;;;;5012393;28;20404;-66
2022/05/29 12:30:01;;;;;;;1.33;0.80;;;16.80;99.90;;;;;;5012092;28;20415;-67
2022/05/29 12:32:32;;;;;;;0.90;0.70;;;16.50;99.90;;;;;;5012242;28;20814;-67
2022/05/29 12:35:05;;;;;;;2.63;1.50;;;16.10;99.90;;;;;;5012139;28;20438;-66
2022/05/29 12:37:56;;;;;;;1.13;1.03;;;16.40;99.90;;;;;;5012423;28;20459;-66
2022/05/29 12:40:56;;;;;;;1.47;1.07;;;16.70;99.90;;;;;;5012014;28;20392;-66
2022/05/29 12:43:52;;;;;;;3.17;1.63;;;16.70;99.90;;;;;;5012134;28;20862;-66
2022/05/29 12:46:40;;;;;;;1.10;1.00;;;16.50;99.90;;;;;;5011576;28;20446;-66
2022/05/29 12:49:39;;;;;;;1.10;1.00;;;16.60;99.90;;;;;;5011998;28;20382;-66
2022/05/29 12:52:20;;;;;;;0.90;0.83;;;16.10;99.90;;;;;;5011893;28;20394;-66
2022/05/29 12:55:10;;;;;;;1.07;1.00;;;16.40;99.90;;;;;;5011748;28;20453;-67
2022/05/29 12:58:12;;;;;;;1.93;1.10;;;16.20;99.90;;;;;;5011922;28;20892;-67
2022/05/29 13:00:46;;;;;;;4.50;1.20;;;16.30;99.90;;;;;;5012067;28;20410;-67
2022/05/29 13:03:11;;;;;;;1.97;1.77;;;16.30;99.90;;;;;;5011630;28;20495;-68
2022/05/29 13:06:14;;;;;;;1.10;1.00;;;15.70;99.90;;;;;;5011472;28;20437;-67
2022/05/29 13:08:59;;;;;;;1.47;1.10;;;15.40;99.90;;;;;;5011559;28;20170;-67
2022/05/29 13:11:30;;;;;;;1.40;1.30;;;15.80;99.90;;;;;;5011588;28;20394;-67
2022/05/29 13:14:00;;;;;;;1.13;0.93;;;15.50;99.90;;;;;;5011478;28;20828;-67
2022/05/29 13:16:30;;;;;;;1.33;1.20;;;15.50;99.90;;;;;;5011673;28;20432;-67
2022/05/29 13:22:02;;;;;;;5.20;1.10;;;14.80;99.90;;;;;;5011642;28;20383;-67
2022/05/29 13:24:41;;;;;;;1.73;1.30;;;15.10;99.90;;;;;;5011618;28;20461;-67
2022/05/29 13:27:12;;;;;;;1.10;1.00;;;15.10;99.90;;;;;;5011316;28;20952;-67
2022/05/29 13:29:49;;;;;;;1.07;0.97;;;15.00;99.90;;;;;;5012161;28;20910;-67
2022/05/29 13:32:14;;;;;;;1.17;0.90;;;14.70;99.90;;;;;;5011656;28;20395;-67
2022/05/29 13:35:15;;;;;;;1.17;0.80;;;15.10;99.90;;;;;;5011331;28;20434;-67
2022/05/29 13:37:47;;;;;;;1.00;0.90;;;15.20;99.90;;;;;;5011539;28;20734;-67
2022/05/29 13:40:27;;;;;;;1.17;1.10;;;14.80;99.90;;;;;;5012060;28;20411;-67
2022/05/29 13:43:14;;;;;;;1.47;0.83;;;14.80;99.90;;;;;;5011842;28;20528;-67
2022/05/29 13:45:43;;;;;;;1.33;1.17;;;14.80;99.90;;;;;;5050169;23;20486;-69
2022/05/29 13:48:13;;;;;;;1.20;0.93;;;14.70;99.90;;;;;;5031849;28;20464;-68
2022/05/29 13:50:47;;;;;;;1.43;1.00;;;14.90;99.90;;;;;;5032878;28;20867;-68
2022/05/29 13:53:26;;;;;;;2.00;1.10;;;14.90;99.90;;;;;;5032384;28;20434;-68
2022/05/29 13:56:04;;;;;;;1.20;1.10;;;14.60;99.90;;;;;;5032205;28;20422;-68
2022/05/29 14:03:58;;;;;;;1.30;1.10;;;14.50;99.90;;;;;;5035879;28;20797;-68